sensor_id;sensor_type;location;lat;lon;timestamp;P1;durP1;ratioP1;P2;durP2;ratioP2
32824;SDS011;51060;42.640;24.356;2022-10-22T00:00:34;30.03;;;18.60;;
32824;SDS011;51060;42.640;24.356;2022-10-22T00:03:00;38.33;;;20.53;;
32824;SDS011;51060;42.640;24.356;2022-10-22T00:05:26;33.77;;;20.33;;
32824;SDS011;51060;42.640;24.356;2022-10-22T00:07:51;31.03;;;18.03;;
32824;SDS011;51060;42.640;24.356;2022-10-22T00:10:17;28.40;;;17.67;;
32824;SDS011;51060;42.640;24.356;2022-10-22T00:12:43;28.80;;;16.80;;
32824;SDS011;51060;42.640;24.356;2022-10-22T00:15:09;24.50;;;16.07;;
32824;SDS011;51060;42.640;24.356;2022-10-22T00:17:35;22.73;;;15.30;;
32824;SDS011;51060;42.640;24.356;2022-10-22T00:20:01;28.23;;;15.97;;
32824;SDS011;51060;42.640;24.356;2022-10-22T00:22:26;37.17;;;19.33;;
32824;SDS011;51060;42.640;24.356;2022-10-22T00:24:52;34.17;;;17.57;;
32824;SDS011;51060;42.640;24.356;2022-10-22T00:27:18;36.43;;;21.60;;
32824;SDS011;51060;42.640;24.356;2022-10-22T00:29:43;32.03;;;19.57;;
32824;SDS011;51060;42.640;24.356;2022-10-22T00:32:09;31.10;;;18.37;;
32824;SDS011;51060;42.640;24.356;2022-10-22T00:34:35;30.00;;;17.70;;
32824;SDS011;51060;42.640;24.356;2022-10-22T00:37:00;28.23;;;16.47;;
32824;SDS011;51060;42.640;24.356;2022-10-22T00:39:27;29.03;;;17.20;;
32824;SDS011;51060;42.640;24.356;2022-10-22T00:41:54;26.53;;;16.57;;
32824;SDS011;51060;42.640;24.356;2022-10-22T00:47:34;37.37;;;23.83;;
32824;SDS011;51060;42.640;24.356;2022-10-22T00:50:23;40.30;;;25.13;;
32824;SDS011;51060;42.640;24.356;2022-10-22T00:53:02;37.97;;;23.13;;
32824;SDS011;51060;42.640;24.356;2022-10-22T00:55:31;42.43;;;24.43;;
32824;SDS011;51060;42.640;24.356;2022-10-22T00:57:57;39.27;;;23.27;;
32824;SDS011;51060;42.640;24.356;2022-10-22T01:00:23;34.70;;;21.63;;
32824;SDS011;51060;42.640;24.356;2022-10-22T01:02:49;29.40;;;18.83;;
32824;SDS011;51060;42.640;24.356;2022-10-22T01:05:15;31.07;;;20.13;;
32824;SDS011;51060;42.640;24.356;2022-10-22T01:07:43;40.73;;;23.17;;
32824;SDS011;51060;42.640;24.356;2022-10-22T01:10:20;42.77;;;22.83;;
32824;SDS011;51060;42.640;24.356;2022-10-22T01:13:05;34.67;;;22.60;;
32824;SDS011;51060;42.640;24.356;2022-10-22T01:15:49;38.00;;;23.63;;
32824;SDS011;51060;42.640;24.356;2022-10-22T01:18:22;34.20;;;21.77;;
32824;SDS011;51060;42.640;24.356;2022-10-22T01:25:57;40.60;;;22.37;;
32824;SDS011;51060;42.640;24.356;2022-10-22T01:28:42;32.37;;;18.67;;
32824;SDS011;51060;42.640;24.356;2022-10-22T01:31:08;30.03;;;18.07;;
32824;SDS011;51060;42.640;24.356;2022-10-22T01:33:36;30.87;;;18.77;;
32824;SDS011;51060;42.640;24.356;2022-10-22T01:36:02;33.63;;;19.10;;
32824;SDS011;51060;42.640;24.356;2022-10-22T01:38:28;33.60;;;20.73;;
32824;SDS011;51060;42.640;24.356;2022-10-22T01:40:55;29.53;;;18.33;;
32824;SDS011;51060;42.640;24.356;2022-10-22T01:43:21;26.73;;;17.53;;
32824;SDS011;51060;42.640;24.356;2022-10-22T01:48:23;21.87;;;14.90;;
32824;SDS011;51060;42.640;24.356;2022-10-22T01:53:53;21.97;;;14.50;;
32824;SDS011;51060;42.640;24.356;2022-10-22T02:07:05;28.07;;;15.83;;
32824;SDS011;51060;42.640;24.356;2022-10-22T02:09:33;27.90;;;16.47;;
32824;SDS011;51060;42.640;24.356;2022-10-22T02:12:00;28.30;;;16.17;;
32824;SDS011;51060;42.640;24.356;2022-10-22T02:14:27;23.17;;;14.93;;
32824;SDS011;51060;42.640;24.356;2022-10-22T02:16:53;25.10;;;15.70;;
32824;SDS011;51060;42.640;24.356;2022-10-22T02:19:25;25.00;;;15.60;;
32824;SDS011;51060;42.640;24.356;2022-10-22T02:21:55;28.83;;;18.10;;
32824;SDS011;51060;42.640;24.356;2022-10-22T02:24:21;27.57;;;16.77;;
32824;SDS011;51060;42.640;24.356;2022-10-22T02:27:01;27.10;;;17.97;;
32824;SDS011;51060;42.640;24.356;2022-10-22T02:29:36;27.60;;;16.50;;
32824;SDS011;51060;42.640;24.356;2022-10-22T02:32:19;24.63;;;16.67;;
32824;SDS011;51060;42.640;24.356;2022-10-22T02:34:47;24.97;;;14.60;;
32824;SDS011;51060;42.640;24.356;2022-10-22T02:37:14;23.20;;;15.17;;
32824;SDS011;51060;42.640;24.356;2022-10-22T02:39:41;26.73;;;17.50;;
32824;SDS011;51060;42.640;24.356;2022-10-22T02:42:07;27.03;;;18.43;;
32824;SDS011;51060;42.640;24.356;2022-10-22T02:44:33;24.40;;;17.37;;
32824;SDS011;51060;42.640;24.356;2022-10-22T02:47:02;23.30;;;16.80;;
32824;SDS011;51060;42.640;24.356;2022-10-22T02:49:28;22.70;;;16.60;;
32824;SDS011;51060;42.640;24.356;2022-10-22T02:51:53;21.50;;;16.57;;
32824;SDS011;51060;42.640;24.356;2022-10-22T02:54:19;24.80;;;15.97;;
32824;SDS011;51060;42.640;24.356;2022-10-22T02:56:45;24.00;;;16.70;;
32824;SDS011;51060;42.640;24.356;2022-10-22T02:59:10;28.40;;;17.63;;
32824;SDS011;51060;42.640;24.356;2022-10-22T03:01:36;21.77;;;16.50;;
32824;SDS011;51060;42.640;24.356;2022-10-22T03:04:02;22.00;;;15.93;;
32824;SDS011;51060;42.640;24.356;2022-10-22T03:06:28;19.13;;;13.50;;
32824;SDS011;51060;42.640;24.356;2022-10-22T03:08:53;18.33;;;13.30;;
32824;SDS011;51060;42.640;24.356;2022-10-22T03:11:19;20.93;;;14.77;;
32824;SDS011;51060;42.640;24.356;2022-10-22T03:13:45;26.03;;;17.73;;
32824;SDS011;51060;42.640;24.356;2022-10-22T03:16:10;31.77;;;19.20;;
32824;SDS011;51060;42.640;24.356;2022-10-22T03:18:36;32.57;;;20.70;;
32824;SDS011;51060;42.640;24.356;2022-10-22T03:23:49;30.90;;;22.10;;
32824;SDS011;51060;42.640;24.356;2022-10-22T03:26:16;31.23;;;20.97;;
32824;SDS011;51060;42.640;24.356;2022-10-22T03:28:41;31.63;;;22.00;;
32824;SDS011;51060;42.640;24.356;2022-10-22T03:31:07;33.00;;;21.97;;
32824;SDS011;51060;42.640;24.356;2022-10-22T03:33:33;32.23;;;22.80;;
32824;SDS011;51060;42.640;24.356;2022-10-22T03:35:59;33.70;;;22.50;;
32824;SDS011;51060;42.640;24.356;2022-10-22T03:38:25;32.63;;;23.63;;
32824;SDS011;51060;42.640;24.356;2022-10-22T03:40:50;36.10;;;24.00;;
32824;SDS011;51060;42.640;24.356;2022-10-22T03:43:16;38.10;;;25.83;;
32824;SDS011;51060;42.640;24.356;2022-10-22T03:45:42;43.70;;;27.67;;
32824;SDS011;51060;42.640;24.356;2022-10-22T03:48:08;37.20;;;24.77;;
32824;SDS011;51060;42.640;24.356;2022-10-22T03:50:33;35.87;;;23.57;;
32824;SDS011;51060;42.640;24.356;2022-10-22T03:52:59;36.60;;;23.40;;
32824;SDS011;51060;42.640;24.356;2022-10-22T03:55:25;40.57;;;26.83;;
32824;SDS011;51060;42.640;24.356;2022-10-22T03:57:51;43.30;;;27.67;;
32824;SDS011;51060;42.640;24.356;2022-10-22T04:00:17;39.90;;;24.73;;
32824;SDS011;51060;42.640;24.356;2022-10-22T04:02:42;34.90;;;24.70;;
32824;SDS011;51060;42.640;24.356;2022-10-22T04:05:08;37.07;;;24.90;;
32824;SDS011;51060;42.640;24.356;2022-10-22T04:07:34;35.63;;;22.47;;
32824;SDS011;51060;42.640;24.356;2022-10-22T04:09:59;33.90;;;22.63;;
32824;SDS011;51060;42.640;24.356;2022-10-22T04:12:25;36.40;;;22.40;;
32824;SDS011;51060;42.640;24.356;2022-10-22T04:14:51;31.97;;;21.83;;
32824;SDS011;51060;42.640;24.356;2022-10-22T04:17:17;35.73;;;23.83;;
32824;SDS011;51060;42.640;24.356;2022-10-22T04:19:42;36.00;;;26.03;;
32824;SDS011;51060;42.640;24.356;2022-10-22T04:22:08;34.90;;;27.37;;
32824;SDS011;51060;42.640;24.356;2022-10-22T04:24:34;40.20;;;28.87;;
32824;SDS011;51060;42.640;24.356;2022-10-22T04:26:59;37.67;;;28.27;;
32824;SDS011;51060;42.640;24.356;2022-10-22T04:29:25;36.80;;;26.97;;
32824;SDS011;51060;42.640;24.356;2022-10-22T04:31:51;34.80;;;26.50;;
32824;SDS011;51060;42.640;24.356;2022-10-22T04:34:16;41.07;;;29.73;;
32824;SDS011;51060;42.640;24.356;2022-10-22T04:36:42;36.20;;;26.17;;
32824;SDS011;51060;42.640;24.356;2022-10-22T04:39:08;42.77;;;27.20;;
32824;SDS011;51060;42.640;24.356;2022-10-22T04:41:36;40.57;;;28.30;;
32824;SDS011;51060;42.640;24.356;2022-10-22T04:44:03;41.80;;;30.77;;
32824;SDS011;51060;42.640;24.356;2022-10-22T04:46:30;57.40;;;39.10;;
32824;SDS011;51060;42.640;24.356;2022-10-22T04:48:56;59.57;;;40.37;;
32824;SDS011;51060;42.640;24.356;2022-10-22T04:51:23;55.23;;;38.20;;
32824;SDS011;51060;42.640;24.356;2022-10-22T04:53:49;54.23;;;36.90;;
32824;SDS011;51060;42.640;24.356;2022-10-22T04:56:19;56.53;;;37.70;;
32824;SDS011;51060;42.640;24.356;2022-10-22T04:58:51;51.47;;;36.73;;
32824;SDS011;51060;42.640;24.356;2022-10-22T05:01:19;53.07;;;35.07;;
32824;SDS011;51060;42.640;24.356;2022-10-22T05:03:46;54.10;;;37.37;;
32824;SDS011;51060;42.640;24.356;2022-10-22T05:06:13;102.80;;;67.23;;
32824;SDS011;51060;42.640;24.356;2022-10-22T05:08:39;93.43;;;63.37;;
32824;SDS011;51060;42.640;24.356;2022-10-22T05:11:14;99.53;;;68.03;;
32824;SDS011;51060;42.640;24.356;2022-10-22T05:13:44;98.23;;;66.83;;
32824;SDS011;51060;42.640;24.356;2022-10-22T05:16:10;99.53;;;67.73;;
32824;SDS011;51060;42.640;24.356;2022-10-22T05:18:36;80.37;;;54.03;;
32824;SDS011;51060;42.640;24.356;2022-10-22T05:21:03;76.87;;;51.07;;
32824;SDS011;51060;42.640;24.356;2022-10-22T05:23:32;74.33;;;50.17;;
32824;SDS011;51060;42.640;24.356;2022-10-22T05:26:00;81.83;;;52.03;;
32824;SDS011;51060;42.640;24.356;2022-10-22T05:28:27;76.77;;;49.43;;
32824;SDS011;51060;42.640;24.356;2022-10-22T05:30:57;75.70;;;49.17;;
32824;SDS011;51060;42.640;24.356;2022-10-22T05:33:23;69.73;;;46.13;;
32824;SDS011;51060;42.640;24.356;2022-10-22T05:35:49;66.00;;;43.70;;
32824;SDS011;51060;42.640;24.356;2022-10-22T05:38:16;60.03;;;40.67;;
32824;SDS011;51060;42.640;24.356;2022-10-22T05:40:42;55.17;;;38.43;;
32824;SDS011;51060;42.640;24.356;2022-10-22T05:43:08;44.07;;;32.33;;
32824;SDS011;51060;42.640;24.356;2022-10-22T05:45:37;44.33;;;32.17;;
32824;SDS011;51060;42.640;24.356;2022-10-22T05:48:06;49.87;;;36.53;;
32824;SDS011;51060;42.640;24.356;2022-10-22T05:53:29;47.03;;;37.90;;
32824;SDS011;51060;42.640;24.356;2022-10-22T05:55:58;54.93;;;41.87;;
32824;SDS011;51060;42.640;24.356;2022-10-22T05:58:24;55.77;;;46.03;;
32824;SDS011;51060;42.640;24.356;2022-10-22T06:00:50;62.83;;;50.67;;
32824;SDS011;51060;42.640;24.356;2022-10-22T06:03:16;59.40;;;49.63;;
32824;SDS011;51060;42.640;24.356;2022-10-22T06:05:41;72.80;;;56.37;;
32824;SDS011;51060;42.640;24.356;2022-10-22T06:08:08;73.60;;;57.97;;
32824;SDS011;51060;42.640;24.356;2022-10-22T06:11:11;96.50;;;68.17;;
32824;SDS011;51060;42.640;24.356;2022-10-22T06:13:39;109.23;;;73.67;;
32824;SDS011;51060;42.640;24.356;2022-10-22T06:16:05;91.90;;;64.80;;
32824;SDS011;51060;42.640;24.356;2022-10-22T06:18:31;89.57;;;59.43;;
32824;SDS011;51060;42.640;24.356;2022-10-22T06:21:02;84.70;;;57.97;;
32824;SDS011;51060;42.640;24.356;2022-10-22T06:23:31;71.67;;;50.37;;
32824;SDS011;51060;42.640;24.356;2022-10-22T06:25:57;63.77;;;48.97;;
32824;SDS011;51060;42.640;24.356;2022-10-22T06:28:24;72.43;;;51.23;;
32824;SDS011;51060;42.640;24.356;2022-10-22T06:30:49;78.17;;;59.20;;
32824;SDS011;51060;42.640;24.356;2022-10-22T06:33:15;76.00;;;58.50;;
32824;SDS011;51060;42.640;24.356;2022-10-22T06:35:41;79.73;;;59.27;;
32824;SDS011;51060;42.640;24.356;2022-10-22T06:38:06;70.10;;;55.50;;
32824;SDS011;51060;42.640;24.356;2022-10-22T06:40:32;68.47;;;54.83;;
32824;SDS011;51060;42.640;24.356;2022-10-22T06:42:58;66.03;;;51.17;;
32824;SDS011;51060;42.640;24.356;2022-10-22T06:45:24;86.67;;;65.93;;
32824;SDS011;51060;42.640;24.356;2022-10-22T06:47:50;67.10;;;57.73;;
32824;SDS011;51060;42.640;24.356;2022-10-22T06:50:19;67.03;;;55.63;;
32824;SDS011;51060;42.640;24.356;2022-10-22T06:52:45;67.07;;;54.57;;
32824;SDS011;51060;42.640;24.356;2022-10-22T06:55:11;87.93;;;72.73;;
32824;SDS011;51060;42.640;24.356;2022-10-22T06:57:36;64.20;;;53.90;;
32824;SDS011;51060;42.640;24.356;2022-10-22T07:00:03;53.43;;;43.17;;
32824;SDS011;51060;42.640;24.356;2022-10-22T07:02:30;49.30;;;41.63;;
32824;SDS011;51060;42.640;24.356;2022-10-22T07:04:56;41.57;;;35.83;;
32824;SDS011;51060;42.640;24.356;2022-10-22T07:07:21;39.70;;;34.97;;
32824;SDS011;51060;42.640;24.356;2022-10-22T07:09:47;38.60;;;33.53;;
32824;SDS011;51060;42.640;24.356;2022-10-22T07:12:14;33.43;;;27.00;;
32824;SDS011;51060;42.640;24.356;2022-10-22T07:14:40;26.70;;;21.87;;
32824;SDS011;51060;42.640;24.356;2022-10-22T07:17:06;28.30;;;23.03;;
32824;SDS011;51060;42.640;24.356;2022-10-22T07:19:32;51.93;;;44.83;;
32824;SDS011;51060;42.640;24.356;2022-10-22T07:21:57;56.77;;;47.50;;
32824;SDS011;51060;42.640;24.356;2022-10-22T07:24:23;64.43;;;53.73;;
32824;SDS011;51060;42.640;24.356;2022-10-22T07:26:49;54.40;;;46.87;;
32824;SDS011;51060;42.640;24.356;2022-10-22T07:29:15;51.63;;;43.73;;
32824;SDS011;51060;42.640;24.356;2022-10-22T07:31:41;46.60;;;37.23;;
32824;SDS011;51060;42.640;24.356;2022-10-22T07:34:07;54.80;;;44.13;;
32824;SDS011;51060;42.640;24.356;2022-10-22T07:36:33;80.10;;;60.40;;
32824;SDS011;51060;42.640;24.356;2022-10-22T07:38:59;86.50;;;67.73;;
32824;SDS011;51060;42.640;24.356;2022-10-22T07:41:26;75.43;;;59.43;;
32824;SDS011;51060;42.640;24.356;2022-10-22T07:43:54;57.30;;;45.73;;
32824;SDS011;51060;42.640;24.356;2022-10-22T07:46:20;52.67;;;40.07;;
32824;SDS011;51060;42.640;24.356;2022-10-22T07:48:46;55.63;;;40.63;;
32824;SDS011;51060;42.640;24.356;2022-10-22T07:51:12;55.67;;;43.73;;
32824;SDS011;51060;42.640;24.356;2022-10-22T07:53:37;57.47;;;39.60;;
32824;SDS011;51060;42.640;24.356;2022-10-22T07:56:03;49.73;;;34.87;;
32824;SDS011;51060;42.640;24.356;2022-10-22T07:58:29;37.07;;;27.13;;
32824;SDS011;51060;42.640;24.356;2022-10-22T08:00:56;38.97;;;27.00;;
32824;SDS011;51060;42.640;24.356;2022-10-22T08:03:24;38.60;;;27.67;;
32824;SDS011;51060;42.640;24.356;2022-10-22T08:05:51;38.70;;;28.30;;
32824;SDS011;51060;42.640;24.356;2022-10-22T08:08:17;33.00;;;25.10;;
32824;SDS011;51060;42.640;24.356;2022-10-22T08:10:43;34.63;;;25.03;;
32824;SDS011;51060;42.640;24.356;2022-10-22T08:13:09;29.77;;;21.90;;
32824;SDS011;51060;42.640;24.356;2022-10-22T08:15:35;30.03;;;23.53;;
32824;SDS011;51060;42.640;24.356;2022-10-22T08:18:00;26.33;;;21.23;;
32824;SDS011;51060;42.640;24.356;2022-10-22T08:20:26;28.97;;;23.60;;
32824;SDS011;51060;42.640;24.356;2022-10-22T08:22:52;26.37;;;22.17;;
32824;SDS011;51060;42.640;24.356;2022-10-22T08:25:17;29.77;;;22.47;;
32824;SDS011;51060;42.640;24.356;2022-10-22T08:27:43;22.33;;;17.23;;
32824;SDS011;51060;42.640;24.356;2022-10-22T08:30:10;25.40;;;20.70;;
32824;SDS011;51060;42.640;24.356;2022-10-22T08:32:39;21.37;;;19.10;;
32824;SDS011;51060;42.640;24.356;2022-10-22T08:35:05;22.40;;;18.17;;
32824;SDS011;51060;42.640;24.356;2022-10-22T08:37:30;22.03;;;16.97;;
32824;SDS011;51060;42.640;24.356;2022-10-22T08:39:56;18.80;;;16.20;;
32824;SDS011;51060;42.640;24.356;2022-10-22T08:44:59;15.80;;;13.27;;
32824;SDS011;51060;42.640;24.356;2022-10-22T08:47:51;12.27;;;9.50;;
32824;SDS011;51060;42.640;24.356;2022-10-22T08:53:20;10.50;;;9.40;;
32824;SDS011;51060;42.640;24.356;2022-10-22T08:55:48;17.52;;;11.65;;
32824;SDS011;51060;42.640;24.356;2022-10-22T08:58:22;19.63;;;14.68;;
32824;SDS011;51060;42.640;24.356;2022-10-22T09:00:59;15.60;;;13.20;;
32824;SDS011;51060;42.640;24.356;2022-10-22T09:06:17;16.52;;;14.23;;
32824;SDS011;51060;42.640;24.356;2022-10-22T09:08:51;21.08;;;16.48;;
32824;SDS011;51060;42.640;24.356;2022-10-22T09:11:30;16.83;;;15.05;;
32824;SDS011;51060;42.640;24.356;2022-10-22T09:13:57;23.70;;;16.23;;
32824;SDS011;51060;42.640;24.356;2022-10-22T09:16:25;16.83;;;14.40;;
32824;SDS011;51060;42.640;24.356;2022-10-22T09:19:17;18.08;;;14.80;;
32824;SDS011;51060;42.640;24.356;2022-10-22T09:24:27;18.80;;;14.18;;
32824;SDS011;51060;42.640;24.356;2022-10-22T09:26:53;17.90;;;15.52;;
32824;SDS011;51060;42.640;24.356;2022-10-22T09:29:21;18.65;;;15.05;;
32824;SDS011;51060;42.640;24.356;2022-10-22T09:31:49;15.70;;;13.73;;
32824;SDS011;51060;42.640;24.356;2022-10-22T09:34:18;21.15;;;16.42;;
32824;SDS011;51060;42.640;24.356;2022-10-22T09:36:44;21.13;;;16.10;;
32824;SDS011;51060;42.640;24.356;2022-10-22T09:39:21;18.23;;;15.75;;
32824;SDS011;51060;42.640;24.356;2022-10-22T09:41:49;17.13;;;14.90;;
32824;SDS011;51060;42.640;24.356;2022-10-22T09:44:16;17.58;;;12.45;;
32824;SDS011;51060;42.640;24.356;2022-10-22T09:46:43;15.50;;;12.05;;
32824;SDS011;51060;42.640;24.356;2022-10-22T09:49:17;16.42;;;11.95;;
32824;SDS011;51060;42.640;24.356;2022-10-22T09:51:52;7.13;;;5.47;;
32824;SDS011;51060;42.640;24.356;2022-10-22T09:54:23;6.88;;;5.47;;
32824;SDS011;51060;42.640;24.356;2022-10-22T09:56:53;5.40;;;4.93;;
32824;SDS011;51060;42.640;24.356;2022-10-22T09:59:24;5.85;;;4.35;;
32824;SDS011;51060;42.640;24.356;2022-10-22T10:01:56;5.55;;;4.60;;
32824;SDS011;51060;42.640;24.356;2022-10-22T10:04:45;5.95;;;4.40;;
32824;SDS011;51060;42.640;24.356;2022-10-22T10:07:15;5.40;;;3.85;;
32824;SDS011;51060;42.640;24.356;2022-10-22T10:09:46;7.55;;;4.13;;
32824;SDS011;51060;42.640;24.356;2022-10-22T10:21:16;6.45;;;5.13;;
32824;SDS011;51060;42.640;24.356;2022-10-22T10:23:45;6.38;;;4.80;;
32824;SDS011;51060;42.640;24.356;2022-10-22T10:26:30;5.07;;;3.92;;
32824;SDS011;51060;42.640;24.356;2022-10-22T10:29:03;6.47;;;4.10;;
32824;SDS011;51060;42.640;24.356;2022-10-22T10:34:45;5.95;;;3.85;;
32824;SDS011;51060;42.640;24.356;2022-10-22T10:37:27;5.10;;;4.35;;
32824;SDS011;51060;42.640;24.356;2022-10-22T10:40:03;6.82;;;4.78;;
32824;SDS011;51060;42.640;24.356;2022-10-22T10:42:59;7.63;;;4.60;;
32824;SDS011;51060;42.640;24.356;2022-10-22T10:45:35;6.97;;;4.28;;
32824;SDS011;51060;42.640;24.356;2022-10-22T10:53:26;6.25;;;4.35;;
32824;SDS011;51060;42.640;24.356;2022-10-22T10:59:35;8.68;;;7.40;;
32824;SDS011;51060;42.640;24.356;2022-10-22T11:07:56;7.18;;;5.53;;
32824;SDS011;51060;42.640;24.356;2022-10-22T11:10:46;6.43;;;4.75;;
32824;SDS011;51060;42.640;24.356;2022-10-22T11:13:16;8.02;;;5.13;;
32824;SDS011;51060;42.640;24.356;2022-10-22T11:15:48;8.82;;;5.32;;
32824;SDS011;51060;42.640;24.356;2022-10-22T11:18:26;7.10;;;5.75;;
32824;SDS011;51060;42.640;24.356;2022-10-22T11:21:56;7.38;;;5.15;;
32824;SDS011;51060;42.640;24.356;2022-10-22T11:24:12;6.35;;;5.10;;
32824;SDS011;51060;42.640;24.356;2022-10-22T11:29:16;16.15;;;7.05;;
32824;SDS011;51060;42.640;24.356;2022-10-22T11:31:50;8.95;;;6.30;;
32824;SDS011;51060;42.640;24.356;2022-10-22T11:34:20;9.52;;;6.93;;
32824;SDS011;51060;42.640;24.356;2022-10-22T11:37:08;11.98;;;5.85;;
32824;SDS011;51060;42.640;24.356;2022-10-22T11:39:39;8.57;;;6.75;;
32824;SDS011;51060;42.640;24.356;2022-10-22T11:42:09;10.35;;;5.13;;
32824;SDS011;51060;42.640;24.356;2022-10-22T11:44:57;8.88;;;5.43;;
32824;SDS011;51060;42.640;24.356;2022-10-22T11:47:34;10.18;;;6.68;;
32824;SDS011;51060;42.640;24.356;2022-10-22T11:50:20;14.27;;;8.68;;
32824;SDS011;51060;42.640;24.356;2022-10-22T11:55:48;13.63;;;8.90;;
32824;SDS011;51060;42.640;24.356;2022-10-22T12:00:55;16.30;;;10.65;;
32824;SDS011;51060;42.640;24.356;2022-10-22T12:11:15;13.30;;;8.00;;
32824;SDS011;51060;42.640;24.356;2022-10-22T12:19:02;11.35;;;6.63;;
32824;SDS011;51060;42.640;24.356;2022-10-22T12:21:40;10.25;;;5.40;;
32824;SDS011;51060;42.640;24.356;2022-10-22T12:24:11;9.63;;;4.70;;
32824;SDS011;51060;42.640;24.356;2022-10-22T12:26:39;13.77;;;6.82;;
32824;SDS011;51060;42.640;24.356;2022-10-22T12:29:08;10.90;;;5.45;;
32824;SDS011;51060;42.640;24.356;2022-10-22T12:31:36;7.75;;;5.13;;
32824;SDS011;51060;42.640;24.356;2022-10-22T12:34:03;10.32;;;5.65;;
32824;SDS011;51060;42.640;24.356;2022-10-22T12:36:29;7.35;;;5.25;;
32824;SDS011;51060;42.640;24.356;2022-10-22T12:39:00;10.23;;;5.88;;
32824;SDS011;51060;42.640;24.356;2022-10-22T12:41:34;9.55;;;6.55;;
32824;SDS011;51060;42.640;24.356;2022-10-22T12:44:02;9.07;;;6.03;;
32824;SDS011;51060;42.640;24.356;2022-10-22T12:46:29;7.53;;;6.00;;
32824;SDS011;51060;42.640;24.356;2022-10-22T12:49:01;9.38;;;5.78;;
32824;SDS011;51060;42.640;24.356;2022-10-22T12:51:28;8.32;;;5.75;;
32824;SDS011;51060;42.640;24.356;2022-10-22T12:53:56;11.10;;;6.90;;
32824;SDS011;51060;42.640;24.356;2022-10-22T12:56:26;6.32;;;5.20;;
32824;SDS011;51060;42.640;24.356;2022-10-22T12:59:04;5.65;;;4.60;;
32824;SDS011;51060;42.640;24.356;2022-10-22T13:01:37;5.38;;;4.72;;
32824;SDS011;51060;42.640;24.356;2022-10-22T13:04:06;6.45;;;5.70;;
32824;SDS011;51060;42.640;24.356;2022-10-22T13:06:46;13.48;;;11.13;;
32824;SDS011;51060;42.640;24.356;2022-10-22T13:09:18;9.52;;;6.45;;
32824;SDS011;51060;42.640;24.356;2022-10-22T13:11:49;9.45;;;5.30;;
32824;SDS011;51060;42.640;24.356;2022-10-22T13:14:27;11.68;;;5.88;;
32824;SDS011;51060;42.640;24.356;2022-10-22T13:19:41;11.73;;;6.72;;
32824;SDS011;51060;42.640;24.356;2022-10-22T13:22:27;13.52;;;7.90;;
32824;SDS011;51060;42.640;24.356;2022-10-22T13:24:53;11.48;;;8.23;;
32824;SDS011;51060;42.640;24.356;2022-10-22T13:27:20;13.35;;;7.35;;
32824;SDS011;51060;42.640;24.356;2022-10-22T13:29:47;13.57;;;7.75;;
32824;SDS011;51060;42.640;24.356;2022-10-22T13:32:23;11.43;;;7.63;;
32824;SDS011;51060;42.640;24.356;2022-10-22T13:34:50;35.67;;;27.77;;
32824;SDS011;51060;42.640;24.356;2022-10-22T13:37:16;35.50;;;22.52;;
32824;SDS011;51060;42.640;24.356;2022-10-22T13:39:42;13.35;;;7.38;;
32824;SDS011;51060;42.640;24.356;2022-10-22T13:42:11;11.95;;;4.70;;
32824;SDS011;51060;42.640;24.356;2022-10-22T13:44:37;17.05;;;10.70;;
32824;SDS011;51060;42.640;24.356;2022-10-22T13:47:03;19.33;;;12.50;;
32824;SDS011;51060;42.640;24.356;2022-10-22T13:49:33;14.35;;;10.32;;
32824;SDS011;51060;42.640;24.356;2022-10-22T13:51:59;15.02;;;11.05;;
32824;SDS011;51060;42.640;24.356;2022-10-22T13:54:25;17.50;;;13.13;;
32824;SDS011;51060;42.640;24.356;2022-10-22T13:56:51;19.05;;;12.07;;
32824;SDS011;51060;42.640;24.356;2022-10-22T13:59:17;16.85;;;12.07;;
32824;SDS011;51060;42.640;24.356;2022-10-22T14:01:43;21.63;;;16.33;;
32824;SDS011;51060;42.640;24.356;2022-10-22T14:04:09;26.35;;;16.85;;
32824;SDS011;51060;42.640;24.356;2022-10-22T14:06:37;30.27;;;20.85;;
32824;SDS011;51060;42.640;24.356;2022-10-22T14:09:05;28.38;;;19.10;;
32824;SDS011;51060;42.640;24.356;2022-10-22T14:11:34;22.17;;;16.83;;
32824;SDS011;51060;42.640;24.356;2022-10-22T14:14:00;33.90;;;20.33;;
32824;SDS011;51060;42.640;24.356;2022-10-22T14:16:29;26.98;;;18.23;;
32824;SDS011;51060;42.640;24.356;2022-10-22T14:18:57;18.23;;;12.32;;
32824;SDS011;51060;42.640;24.356;2022-10-22T14:21:24;14.90;;;12.18;;
32824;SDS011;51060;42.640;24.356;2022-10-22T14:23:49;14.18;;;11.55;;
32824;SDS011;51060;42.640;24.356;2022-10-22T14:26:24;20.33;;;12.15;;
32824;SDS011;51060;42.640;24.356;2022-10-22T14:28:52;24.02;;;15.70;;
32824;SDS011;51060;42.640;24.356;2022-10-22T14:31:18;17.85;;;13.35;;
32824;SDS011;51060;42.640;24.356;2022-10-22T14:33:44;15.60;;;12.30;;
32824;SDS011;51060;42.640;24.356;2022-10-22T14:36:13;22.10;;;15.82;;
32824;SDS011;51060;42.640;24.356;2022-10-22T14:38:40;20.70;;;14.30;;
32824;SDS011;51060;42.640;24.356;2022-10-22T14:41:20;24.08;;;16.30;;
32824;SDS011;51060;42.640;24.356;2022-10-22T14:43:47;22.90;;;17.15;;
32824;SDS011;51060;42.640;24.356;2022-10-22T14:46:14;22.50;;;18.38;;
32824;SDS011;51060;42.640;24.356;2022-10-22T14:48:41;29.38;;;21.83;;
32824;SDS011;51060;42.640;24.356;2022-10-22T14:51:13;24.33;;;18.63;;
32824;SDS011;51060;42.640;24.356;2022-10-22T14:53:40;25.45;;;20.40;;
32824;SDS011;51060;42.640;24.356;2022-10-22T14:56:08;29.90;;;20.65;;
32824;SDS011;51060;42.640;24.356;2022-10-22T14:58:38;27.75;;;20.45;;
32824;SDS011;51060;42.640;24.356;2022-10-22T15:01:04;28.63;;;22.67;;
32824;SDS011;51060;42.640;24.356;2022-10-22T15:03:30;38.53;;;25.30;;
32824;SDS011;51060;42.640;24.356;2022-10-22T15:05:56;30.88;;;24.85;;
32824;SDS011;51060;42.640;24.356;2022-10-22T15:08:22;32.55;;;21.90;;
32824;SDS011;51060;42.640;24.356;2022-10-22T15:11:05;38.88;;;26.10;;
32824;SDS011;51060;42.640;24.356;2022-10-22T15:13:32;56.33;;;37.90;;
32824;SDS011;51060;42.640;24.356;2022-10-22T15:15:58;83.75;;;50.47;;
32824;SDS011;51060;42.640;24.356;2022-10-22T15:18:24;80.38;;;55.40;;
32824;SDS011;51060;42.640;24.356;2022-10-22T15:20:54;36.58;;;26.38;;
32824;SDS011;51060;42.640;24.356;2022-10-22T15:23:21;52.13;;;37.20;;
32824;SDS011;51060;42.640;24.356;2022-10-22T15:25:46;29.15;;;25.15;;
32824;SDS011;51060;42.640;24.356;2022-10-22T15:28:12;49.20;;;34.88;;
32824;SDS011;51060;42.640;24.356;2022-10-22T15:30:38;36.88;;;26.95;;
32824;SDS011;51060;42.640;24.356;2022-10-22T15:33:04;23.95;;;14.88;;
32824;SDS011;51060;42.640;24.356;2022-10-22T15:35:29;14.57;;;10.02;;
32824;SDS011;51060;42.640;24.356;2022-10-22T15:37:55;16.00;;;8.45;;
32824;SDS011;51060;42.640;24.356;2022-10-22T15:40:21;10.70;;;6.75;;
32824;SDS011;51060;42.640;24.356;2022-10-22T15:42:46;8.07;;;6.45;;
32824;SDS011;51060;42.640;24.356;2022-10-22T15:45:12;12.63;;;7.78;;
32824;SDS011;51060;42.640;24.356;2022-10-22T15:47:38;17.98;;;12.13;;
32824;SDS011;51060;42.640;24.356;2022-10-22T15:50:03;22.35;;;17.30;;
32824;SDS011;51060;42.640;24.356;2022-10-22T15:52:30;20.48;;;16.38;;
32824;SDS011;51060;42.640;24.356;2022-10-22T15:54:56;34.88;;;23.25;;